createdAt,value
2023-04-05T00:01:35.395Z,7.03
2023-04-05T00:03:41.092Z,7.43
2023-04-05T00:05:50.218Z,7.10
2023-04-05T00:07:55.496Z,7.10
2023-04-05T00:10:00.717Z,6.03
2023-04-05T00:12:06.815Z,6.03
2023-04-05T00:14:11.924Z,5.47
2023-04-05T00:16:17.810Z,5.43
2023-04-05T00:18:24.672Z,5.72
2023-04-05T00:20:30.209Z,6.32
2023-04-05T00:22:38.658Z,6.95
2023-04-05T00:24:43.814Z,6.82
2023-04-05T00:26:48.992Z,6.65
2023-04-05T00:28:54.893Z,6.43
2023-04-05T00:31:00.196Z,5.93
2023-04-05T00:33:06.120Z,5.65
2023-04-05T00:35:12.215Z,6.55
2023-04-05T00:37:17.398Z,5.45
2023-04-05T00:39:25.105Z,5.38
2023-04-05T00:41:31.133Z,5.47
2023-04-05T00:43:37.283Z,5.20
2023-04-05T00:45:42.454Z,5.20
2023-04-05T00:47:47.976Z,5.90
2023-04-05T00:49:53.623Z,5.63
2023-04-05T00:52:00.035Z,5.55
2023-04-05T00:54:06.192Z,5.30
2023-04-05T00:56:14.190Z,5.82
2023-04-05T01:00:27.757Z,5.00
2023-04-05T01:02:39.466Z,4.18
2023-04-05T01:04:50.465Z,4.05
2023-04-05T01:07:07.672Z,4.30
2023-04-05T01:09:28.103Z,4.30
2023-04-05T01:11:38.272Z,4.40
2023-04-05T01:13:43.501Z,4.25
2023-04-05T01:15:48.888Z,4.22
2023-04-05T01:17:54.400Z,4.50
2023-04-05T01:20:02.489Z,4.43
2023-04-05T01:22:46.910Z,4.97
2023-04-05T01:25:25.350Z,4.40
2023-04-05T01:27:52.710Z,4.40
2023-04-05T01:30:10.911Z,4.72
2023-04-05T01:32:42.670Z,4.15
2023-04-05T01:34:57.427Z,3.90
2023-04-05T01:37:10.325Z,4.10
2023-04-05T01:39:20.272Z,4.00
2023-04-05T01:41:26.487Z,4.18
2023-04-05T01:43:31.984Z,4.20
2023-04-05T01:45:39.708Z,4.38
2023-04-05T01:47:44.924Z,4.43
2023-04-05T01:49:51.465Z,4.30
2023-04-05T01:51:56.647Z,5.05
2023-04-05T01:54:01.977Z,4.47
2023-04-05T01:56:08.001Z,4.65
2023-04-05T01:58:15.498Z,5.22
2023-04-05T02:00:22.072Z,5.55
2023-04-05T02:02:29.898Z,5.70
2023-04-05T02:06:41.169Z,5.05
2023-04-05T02:08:46.992Z,4.87
2023-04-05T02:10:52.816Z,4.75
2023-04-05T02:12:58.113Z,5.10
2023-04-05T02:15:04.197Z,5.65
2023-04-05T02:17:09.286Z,5.93
2023-04-05T02:19:23.161Z,4.88
2023-04-05T02:21:32.482Z,5.25
2023-04-05T02:23:38.253Z,5.07
2023-04-05T02:25:43.421Z,5.30
2023-04-05T02:27:48.762Z,5.22
2023-04-05T02:29:55.940Z,5.47
2023-04-05T02:32:01.707Z,5.75
2023-04-05T02:34:09.353Z,5.55
2023-04-05T02:36:17.513Z,5.88
2023-04-05T02:38:23.765Z,5.82
2023-04-05T02:40:29.034Z,5.53
2023-04-05T02:42:34.397Z,5.32
2023-04-05T02:44:39.486Z,6.20
2023-04-05T02:46:44.826Z,5.80
2023-04-05T02:48:51.795Z,5.60
2023-04-05T02:50:57.646Z,6.00
2023-04-05T02:53:05.448Z,6.20
2023-04-05T02:55:11.331Z,6.00
2023-04-05T02:57:16.757Z,6.32
2023-04-05T02:59:32.270Z,5.63
2023-04-05T03:01:38.579Z,5.97
2023-04-05T03:03:45.283Z,7.22
2023-04-05T03:06:01.757Z,6.40
2023-04-05T03:08:19.841Z,5.68
2023-04-05T03:10:36.824Z,5.63
2023-04-05T03:12:51.637Z,5.47
2023-04-05T03:15:00.968Z,5.97
2023-04-05T03:17:13.717Z,5.63
2023-04-05T03:19:24.293Z,6.00
2023-04-05T03:21:34.205Z,4.68
2023-04-05T03:23:50.530Z,5.35
2023-04-05T03:26:03.618Z,6.37
2023-04-05T03:28:13.529Z,6.30
2023-04-05T03:30:23.339Z,7.40
2023-04-05T03:32:34.873Z,6.07
2023-04-05T03:34:48.746Z,5.68
2023-04-05T03:36:56.192Z,6.83
2023-04-05T03:39:14.401Z,6.68
2023-04-05T03:41:19.739Z,6.25
2023-04-05T03:43:25.250Z,6.63
2023-04-05T03:45:31.367Z,6.97
2023-04-05T03:47:38.360Z,6.30
2023-04-05T03:49:45.429Z,5.63
2023-04-05T03:51:51.013Z,5.72
2023-04-05T03:53:57.446Z,5.93
2023-04-05T03:56:09.369Z,5.93
2023-04-05T03:58:23.100Z,5.47
2023-04-05T04:00:28.530Z,5.55
2023-04-05T04:02:56.106Z,5.80
2023-04-05T04:05:01.326Z,6.20
2023-04-05T04:07:06.859Z,6.10
2023-04-05T04:09:12.846Z,5.40
2023-04-05T04:11:21.077Z,6.03
2023-04-05T04:13:27.100Z,5.63
2023-04-05T04:15:47.530Z,5.53
2023-04-05T04:18:04.197Z,5.72
2023-04-05T04:20:33.471Z,5.88
2023-04-05T04:22:54.098Z,5.75
2023-04-05T04:25:18.954Z,5.40
2023-04-05T04:27:33.089Z,5.65
2023-04-05T04:32:49.315Z,5.47
2023-04-05T04:35:26.133Z,6.00
2023-04-05T04:37:37.745Z,6.00
2023-04-05T04:40:19.766Z,5.80
2023-04-05T04:42:46.904Z,5.95
2023-04-05T04:45:11.092Z,5.97
2023-04-05T04:47:25.271Z,6.05
2023-04-05T04:49:45.702Z,6.25
2023-04-05T04:51:51.196Z,5.68
2023-04-05T04:53:59.416Z,6.53
2023-04-05T04:56:04.658Z,6.65
2023-04-05T04:58:13.271Z,7.07
2023-04-05T05:00:22.268Z,6.40
2023-04-05T05:02:30.555Z,6.72
2023-04-05T05:04:37.785Z,8.07
2023-04-05T05:06:43.226Z,8.02
2023-04-05T05:08:49.306Z,7.13
2023-04-05T05:10:55.266Z,7.60
2023-04-05T05:13:00.396Z,6.95
2023-04-05T05:15:10.520Z,7.57
2023-04-05T05:17:15.628Z,7.13
2023-04-05T05:19:21.413Z,7.85
2023-04-05T05:21:29.813Z,7.25
2023-04-05T05:23:38.586Z,7.70
2023-04-05T05:25:43.710Z,6.50
2023-04-05T05:27:52.596Z,6.78
2023-04-05T05:30:01.911Z,7.40
2023-04-05T05:32:14.457Z,6.38
2023-04-05T05:34:20.272Z,6.75
2023-04-05T05:36:28.715Z,7.38
2023-04-05T05:38:33.831Z,6.35
2023-04-05T05:40:39.566Z,7.07
2023-04-05T05:42:44.940Z,6.50
2023-04-05T05:44:50.664Z,6.75
2023-04-05T05:46:55.972Z,6.35
2023-04-05T05:49:03.790Z,6.53
2023-04-05T05:51:10.087Z,6.40
2023-04-05T05:53:15.235Z,6.30
2023-04-05T05:55:21.105Z,8.98
2023-04-05T05:57:27.470Z,6.38
2023-04-05T05:59:32.775Z,6.35
2023-04-05T06:01:43.115Z,6.20
2023-04-05T06:03:48.555Z,7.07
2023-04-05T06:06:03.500Z,6.22
2023-04-05T06:08:08.590Z,5.95
2023-04-05T06:10:14.824Z,6.55
2023-04-05T06:12:20.051Z,6.13
2023-04-05T06:14:25.603Z,6.10
2023-04-05T06:16:31.077Z,6.93
2023-04-05T06:18:36.606Z,6.50
2023-04-05T06:20:43.265Z,6.50
2023-04-05T06:22:51.590Z,6.13
2023-04-05T06:24:56.757Z,6.97
2023-04-05T06:27:02.171Z,6.95
2023-04-05T06:29:07.368Z,6.68
2023-04-05T06:31:12.579Z,7.07
2023-04-05T06:33:17.959Z,7.57
2023-04-05T06:35:23.384Z,8.13
2023-04-05T06:37:29.089Z,7.30
2023-04-05T06:39:37.116Z,8.52
2023-04-05T06:41:42.241Z,7.32
2023-04-05T06:43:47.813Z,6.72
2023-04-05T06:45:53.286Z,6.80
2023-04-05T06:47:58.773Z,7.25
2023-04-05T06:50:04.090Z,7.43
2023-04-05T06:52:09.236Z,7.10
2023-04-05T06:54:14.492Z,7.18
2023-04-05T06:56:23.408Z,6.60
2023-04-05T06:58:30.012Z,6.97
2023-04-05T07:00:35.202Z,6.07
2023-04-05T07:02:41.348Z,6.60
2023-04-05T07:04:47.359Z,6.47
2023-04-05T07:06:54.010Z,6.75
2023-04-05T07:08:59.320Z,6.00
2023-04-05T07:11:04.457Z,5.30
2023-04-05T07:13:12.215Z,5.80
2023-04-05T07:15:17.570Z,5.70
2023-04-05T07:17:22.831Z,5.78
2023-04-05T07:19:28.236Z,5.63
2023-04-05T07:21:33.534Z,6.07
2023-04-05T07:23:38.856Z,6.75
2023-04-05T07:25:44.250Z,6.10
2023-04-05T07:27:49.804Z,6.40
2023-04-05T07:29:57.408Z,5.53
2023-04-05T07:32:02.545Z,6.55
2023-04-05T07:34:08.005Z,6.07
2023-04-05T07:36:13.233Z,6.50
2023-04-05T07:38:18.297Z,6.05
2023-04-05T07:40:23.477Z,6.05
2023-04-05T07:42:28.707Z,6.20
2023-04-05T07:44:33.931Z,6.13
2023-04-05T07:46:46.922Z,5.78
2023-04-05T07:53:05.888Z,6.07
2023-04-05T07:55:12.363Z,6.50
2023-04-05T07:57:20.414Z,5.40
2023-04-05T08:01:31.389Z,5.13
2023-04-05T08:03:41.003Z,5.50
2023-04-05T08:05:46.341Z,5.35
2023-04-05T08:07:51.578Z,5.68
2023-04-05T08:09:59.284Z,5.68
2023-04-05T08:12:04.482Z,5.17
2023-04-05T08:14:10.068Z,5.60
2023-04-05T08:16:15.679Z,5.15
2023-04-05T08:18:21.472Z,5.55
2023-04-05T08:20:29.544Z,4.82
2023-04-05T08:22:34.644Z,4.85
2023-04-05T08:24:40.146Z,4.20
2023-04-05T08:26:45.836Z,3.78
2023-04-05T08:28:51.894Z,4.22
2023-04-05T08:30:58.015Z,3.85
2023-04-05T08:33:03.203Z,4.00
2023-04-05T08:35:09.518Z,3.40
2023-04-05T08:37:17.336Z,3.78
2023-04-05T08:39:22.718Z,4.65
2023-04-05T08:41:32.701Z,3.40
2023-04-05T08:43:59.135Z,3.97
2023-04-05T08:46:05.234Z,3.83
2023-04-05T08:48:10.483Z,2.92
2023-04-05T08:50:16.399Z,3.47
2023-04-05T08:52:24.441Z,3.00
2023-04-05T08:54:29.755Z,2.95
2023-04-05T08:56:36.982Z,3.28
2023-04-05T08:58:43.186Z,3.30
2023-04-05T09:00:48.819Z,2.80
2023-04-05T09:02:59.613Z,3.30
2023-04-05T09:05:07.053Z,3.05
2023-04-05T09:07:12.457Z,2.97
2023-04-05T09:09:22.208Z,3.15
2023-04-05T09:11:28.580Z,2.92
2023-04-05T09:13:34.717Z,3.22
2023-04-05T09:15:41.492Z,3.10
2023-04-05T09:17:47.098Z,3.50
2023-04-05T09:19:53.102Z,2.83
2023-04-05T09:22:06.384Z,2.90
2023-04-05T09:24:37.156Z,2.80
2023-04-05T09:26:42.709Z,3.10
2023-04-05T09:28:47.876Z,3.50
2023-04-05T09:30:53.174Z,2.60
2023-04-05T09:32:59.320Z,3.03
2023-04-05T09:35:04.781Z,3.47
2023-04-05T09:37:17.285Z,3.50
2023-04-05T09:39:32.760Z,3.08
2023-04-05T09:41:39.847Z,3.10
2023-04-05T09:43:46.609Z,2.90
2023-04-05T09:45:51.750Z,2.83
2023-04-05T09:47:59.453Z,2.38
2023-04-05T09:50:07.213Z,2.45
2023-04-05T09:52:25.707Z,2.95
2023-04-05T09:54:43.873Z,2.67
2023-04-05T09:56:59.007Z,2.58
2023-04-05T09:59:05.365Z,2.78
2023-04-05T10:01:16.826Z,2.80
2023-04-05T10:03:23.270Z,2.53
2023-04-05T10:05:32.672Z,2.60
2023-04-05T10:07:38.809Z,2.63
2023-04-05T10:09:48.436Z,2.50
2023-04-05T10:11:54.446Z,3.08
2023-04-05T10:14:04.284Z,2.47
2023-04-05T10:16:16.251Z,2.78
2023-04-05T10:18:27.804Z,2.47
2023-04-05T10:20:33.795Z,2.70
2023-04-05T10:22:47.075Z,2.85
2023-04-05T10:25:00.581Z,2.03
2023-04-05T10:27:11.745Z,2.30
2023-04-05T10:29:33.728Z,2.50
2023-04-05T10:31:53.350Z,2.63
2023-04-05T10:34:07.551Z,2.28
2023-04-05T10:36:40.197Z,2.50
2023-04-05T10:39:04.780Z,2.58
2023-04-05T10:41:15.789Z,2.25
2023-04-05T10:43:28.627Z,3.15
2023-04-05T10:45:35.960Z,2.75
2023-04-05T10:47:50.013Z,2.58
2023-04-05T10:49:59.821Z,2.60
2023-04-05T10:52:06.175Z,2.88
2023-04-05T10:54:12.463Z,2.63
2023-04-05T10:56:21.510Z,2.60
2023-04-05T10:58:28.554Z,2.63
2023-04-05T11:00:34.100Z,2.77
2023-04-05T11:02:39.858Z,2.50
2023-04-05T11:04:45.480Z,2.60
2023-04-05T11:06:50.801Z,2.17
2023-04-05T11:09:02.511Z,2.72
2023-04-05T11:11:09.961Z,2.40
2023-04-05T11:13:17.765Z,2.22
2023-04-05T11:15:34.399Z,2.55
2023-04-05T11:17:39.616Z,2.30
2023-04-05T11:19:55.205Z,2.33
2023-04-05T11:22:05.383Z,2.20
2023-04-05T11:24:15.336Z,2.45
2023-04-05T11:26:20.745Z,2.30
2023-04-05T11:28:32.990Z,2.35
2023-04-05T11:30:52.199Z,2.38
2023-04-05T11:32:57.379Z,2.25
2023-04-05T11:35:18.178Z,2.40
2023-04-05T11:37:27.497Z,2.47
2023-04-05T11:39:42.558Z,2.33
2023-04-05T11:41:49.424Z,2.20
2023-04-05T11:43:57.778Z,2.50
2023-04-05T11:46:06.563Z,2.17
2023-04-05T11:48:14.394Z,2.22
2023-04-05T11:50:19.730Z,2.40
2023-04-05T11:52:25.101Z,2.50
2023-04-05T11:54:34.967Z,2.50
2023-04-05T11:56:44.266Z,2.28
2023-04-05T11:58:54.399Z,2.78
2023-04-05T12:01:07.747Z,2.45
2023-04-05T12:03:15.775Z,2.25
2023-04-05T12:05:21.070Z,2.80
2023-04-05T12:07:33.095Z,2.45
2023-04-05T12:09:38.224Z,2.45
2023-04-05T12:11:43.265Z,2.60
2023-04-05T12:13:48.970Z,2.13
2023-04-05T12:15:54.653Z,2.47
2023-04-05T12:18:03.999Z,2.40
2023-04-05T12:20:11.995Z,2.38
2023-04-05T12:22:18.701Z,2.60
2023-04-05T12:24:25.476Z,2.35
2023-04-05T12:26:34.384Z,2.35
2023-04-05T12:28:56.349Z,2.22
2023-04-05T12:31:02.645Z,2.30
2023-04-05T12:33:13.495Z,2.05
2023-04-05T12:35:24.701Z,2.17
2023-04-05T12:37:33.729Z,2.10
2023-04-05T12:39:41.129Z,2.45
2023-04-05T12:41:46.613Z,2.47
2023-04-05T12:43:53.945Z,2.30
2023-04-05T12:46:00.079Z,2.53
2023-04-05T12:48:05.614Z,2.22
2023-04-05T12:50:18.477Z,2.40
2023-04-05T12:52:23.823Z,2.47
2023-04-05T12:54:31.160Z,2.60
2023-04-05T12:56:36.362Z,2.40
2023-04-05T12:58:41.896Z,2.60
2023-04-05T13:00:47.403Z,2.30
2023-04-05T13:02:54.028Z,2.35
2023-04-05T13:04:59.192Z,2.60
2023-04-05T13:07:06.899Z,2.55
2023-04-05T13:11:17.020Z,2.38
2023-04-05T13:13:23.420Z,2.40
2023-04-05T13:15:28.624Z,2.20
2023-04-05T13:17:33.916Z,2.17
2023-04-05T13:19:39.108Z,2.58
2023-04-05T13:21:44.813Z,1.95
2023-04-05T13:23:52.603Z,2.40
2023-04-05T13:25:57.776Z,2.50
2023-04-05T13:28:02.915Z,2.05
2023-04-05T13:30:09.848Z,2.40
2023-04-05T13:32:15.182Z,2.28
2023-04-05T13:34:20.639Z,2.42
2023-04-05T13:36:26.328Z,2.90
2023-04-05T13:38:31.410Z,2.83
2023-04-05T13:40:39.103Z,2.70
2023-04-05T13:42:44.192Z,2.33
2023-04-05T13:44:49.265Z,2.63
2023-04-05T13:46:54.348Z,2.20
2023-04-05T13:48:59.417Z,2.60
2023-04-05T13:51:04.540Z,2.65
2023-04-05T13:53:10.336Z,2.33
2023-04-05T13:55:15.681Z,2.00
2023-04-05T13:57:23.424Z,2.42
2023-04-05T13:59:29.043Z,2.58
2023-04-05T14:01:36.426Z,2.58
2023-04-05T14:03:41.696Z,2.80
2023-04-05T14:05:49.832Z,2.40
2023-04-05T14:07:56.078Z,2.60
2023-04-05T14:10:01.461Z,2.22
2023-04-05T14:12:07.757Z,2.40
2023-04-05T14:14:16.362Z,2.58
2023-04-05T14:16:21.511Z,2.47
2023-04-05T14:18:27.348Z,2.53
2023-04-05T14:20:32.740Z,2.65
2023-04-05T14:22:37.838Z,2.40
2023-04-05T14:24:42.924Z,2.53
2023-04-05T14:26:49.930Z,3.10
2023-04-05T14:28:55.305Z,2.35
2023-04-05T14:31:03.129Z,2.60
2023-04-05T14:33:09.049Z,2.70
2023-04-05T14:35:14.166Z,2.22
2023-04-05T14:37:19.688Z,2.40
2023-04-05T14:39:24.861Z,2.50
2023-04-05T14:41:30.180Z,2.78
2023-04-05T14:43:35.745Z,2.47
2023-04-05T14:45:41.043Z,2.63
2023-04-05T14:47:48.804Z,2.47
2023-04-05T14:49:54.117Z,2.67
2023-04-05T14:51:59.686Z,2.78
2023-04-05T14:54:04.784Z,2.70
2023-04-05T14:56:11.781Z,2.40
2023-04-05T14:58:17.082Z,2.65
2023-04-05T15:00:23.689Z,2.20
2023-04-05T15:02:29.764Z,2.37
2023-04-05T15:04:37.653Z,2.92
2023-04-05T15:06:42.853Z,2.33
2023-04-05T15:08:48.005Z,2.45
2023-04-05T15:10:53.371Z,2.30
2023-04-05T15:12:59.276Z,2.55
2023-04-05T15:15:04.672Z,2.45
2023-04-05T15:17:09.986Z,2.83
2023-04-05T15:19:15.114Z,2.35
2023-04-05T15:21:22.923Z,2.17
2023-04-05T15:23:28.422Z,2.45
2023-04-05T15:25:33.567Z,2.58
2023-04-05T15:27:38.842Z,2.30
2023-04-05T15:29:43.973Z,2.75
2023-04-05T15:31:49.240Z,2.40
2023-04-05T15:33:54.439Z,2.35
2023-04-05T15:35:59.742Z,2.30
2023-04-05T15:38:07.828Z,2.50
2023-04-05T15:40:14.089Z,2.60
2023-04-05T15:42:21.039Z,2.38
2023-04-05T15:44:26.902Z,2.63
2023-04-05T15:46:32.170Z,2.95
2023-04-05T15:48:37.341Z,3.03
2023-04-05T15:50:42.512Z,2.40
2023-04-05T15:52:47.604Z,2.58
2023-04-05T15:54:55.647Z,2.85
2023-04-05T15:57:01.976Z,3.20
2023-04-05T15:59:07.529Z,2.22
2023-04-05T16:01:13.154Z,2.15
2023-04-05T16:03:18.400Z,2.38
2023-04-05T16:05:23.621Z,2.40
2023-04-05T16:07:28.794Z,2.50
2023-04-05T16:09:33.919Z,2.92
2023-04-05T16:11:41.822Z,2.60
2023-04-05T16:13:47.058Z,2.20
2023-04-05T16:15:52.496Z,2.40
2023-04-05T16:17:58.564Z,2.20
2023-04-05T16:20:06.713Z,2.40
2023-04-05T16:22:11.968Z,2.22
2023-04-05T16:24:17.113Z,2.35
2023-04-05T16:26:27.067Z,2.45
2023-04-05T16:28:37.751Z,2.47
2023-04-05T16:30:46.337Z,2.53
2023-04-05T16:32:53.798Z,2.15
2023-04-05T16:34:59.021Z,2.40
2023-04-05T16:37:04.610Z,1.98
2023-04-05T16:39:09.754Z,2.30
2023-04-05T16:41:14.913Z,2.25
2023-04-05T16:43:20.109Z,2.78
2023-04-05T16:45:32.475Z,2.78
2023-04-05T16:47:38.393Z,2.80
2023-04-05T16:49:43.679Z,2.80
2023-04-05T16:51:48.816Z,2.40
2023-04-05T16:53:53.976Z,2.63
2023-04-05T16:55:59.121Z,2.50
2023-04-05T16:58:04.448Z,2.40
2023-04-05T17:00:11.869Z,2.53
2023-04-05T17:02:20.015Z,2.40
2023-04-05T17:04:25.306Z,2.38
2023-04-05T17:06:31.936Z,2.63
2023-04-05T17:08:37.138Z,2.40
2023-04-05T17:10:42.712Z,2.70
2023-04-05T17:12:51.472Z,2.60
2023-04-05T17:15:03.852Z,2.03
2023-04-05T17:17:13.078Z,3.00
2023-04-05T17:19:37.002Z,2.55
2023-04-05T17:21:45.233Z,2.50
2023-04-05T17:23:50.504Z,2.67
2023-04-05T17:25:55.676Z,2.40
2023-04-05T17:28:01.280Z,2.70
2023-04-05T17:30:07.413Z,2.85
2023-04-05T17:32:12.983Z,2.55
2023-04-05T17:34:18.486Z,2.53
2023-04-05T17:36:32.717Z,2.88
2023-04-05T17:38:40.010Z,2.95
2023-04-05T17:40:45.196Z,2.90
2023-04-05T17:42:53.443Z,2.88
2023-04-05T17:47:09.258Z,2.33
2023-04-05T17:49:17.192Z,2.47
2023-04-05T17:51:28.411Z,2.83
2023-04-05T17:53:33.912Z,3.50
2023-04-05T17:55:44.625Z,3.75
2023-04-05T17:57:57.695Z,3.10
2023-04-05T18:00:10.947Z,2.95
2023-04-05T18:02:24.644Z,2.75
2023-04-05T18:04:31.430Z,2.75
2023-04-05T18:06:39.836Z,2.30
2023-04-05T18:08:45.004Z,2.40
2023-04-05T18:10:50.906Z,2.63
2023-04-05T18:12:56.188Z,3.65
2023-04-05T18:15:01.429Z,3.10
2023-04-05T18:17:08.962Z,2.33
2023-04-05T18:19:14.099Z,2.28
2023-04-05T18:21:19.257Z,3.42
2023-04-05T18:23:27.716Z,3.45
2023-04-05T18:25:33.412Z,3.58
2023-04-05T18:27:38.569Z,3.53
2023-04-05T18:29:44.388Z,3.53
2023-04-05T18:31:49.592Z,3.42
2023-04-05T18:33:54.940Z,3.50
2023-04-05T18:36:00.251Z,3.30
2023-04-05T18:40:16.108Z,2.80
2023-04-05T18:42:21.381Z,2.90
2023-04-05T18:44:26.629Z,2.92
2023-04-05T18:46:31.915Z,2.90
2023-04-05T18:48:39.017Z,3.05
2023-04-05T18:50:44.080Z,3.10
2023-04-05T18:52:49.383Z,2.78
2023-04-05T18:54:58.639Z,2.60
2023-04-05T18:57:06.586Z,2.70
2023-04-05T19:01:18.879Z,2.75
2023-04-05T19:03:28.758Z,2.75
2023-04-05T19:05:34.448Z,2.75
2023-04-05T19:07:39.574Z,3.03
2023-04-05T19:09:45.007Z,2.55
2023-04-05T19:11:50.119Z,2.58
2023-04-05T19:14:00.521Z,2.10
2023-04-05T19:16:05.740Z,2.72
2023-04-05T19:18:11.135Z,2.40
2023-04-05T19:20:16.789Z,2.17
2023-04-05T19:22:21.907Z,2.53
2023-04-05T19:24:27.843Z,3.13
2023-04-05T19:26:33.911Z,2.63
2023-04-05T19:28:39.229Z,2.33
2023-04-05T19:30:47.351Z,1.80
2023-04-05T19:35:03.352Z,2.10
2023-04-05T19:37:09.203Z,2.17
2023-04-05T19:39:14.480Z,2.00
2023-04-05T19:41:20.502Z,2.45
2023-04-05T19:43:27.304Z,2.90
2023-04-05T19:45:34.910Z,2.80
2023-04-05T19:47:49.012Z,2.92
2023-04-05T19:49:57.229Z,2.80
2023-04-05T19:52:02.401Z,2.47
2023-04-05T19:54:14.698Z,2.50
2023-04-05T19:56:23.682Z,2.47
2023-04-05T19:58:30.684Z,2.90
2023-04-05T20:00:40.082Z,3.07
2023-04-05T20:02:47.892Z,3.00
2023-04-05T20:04:53.083Z,2.60
2023-04-05T20:06:59.068Z,2.90
2023-04-05T20:09:08.240Z,3.08
2023-04-05T20:11:16.732Z,2.92
2023-04-05T20:13:22.082Z,3.17
2023-04-05T20:15:38.682Z,2.83
2023-04-05T20:17:51.520Z,2.95
2023-04-05T20:20:01.643Z,3.13
2023-04-05T20:22:12.759Z,3.22
2023-04-05T20:24:22.297Z,3.03
2023-04-05T20:26:31.447Z,3.38
2023-04-05T20:28:43.184Z,3.30
2023-04-05T20:30:49.041Z,3.65
2023-04-05T20:32:56.752Z,3.33
2023-04-05T20:35:04.293Z,3.45
2023-04-05T20:37:13.796Z,3.75
2023-04-05T20:39:23.798Z,3.45
2023-04-05T20:41:29.066Z,3.88
2023-04-05T20:43:39.458Z,4.40
2023-04-05T20:45:44.956Z,4.10
2023-04-05T20:47:50.193Z,4.25
2023-04-05T20:49:58.026Z,3.67
2023-04-05T20:52:07.873Z,3.40
2023-04-05T20:54:16.460Z,3.40
2023-04-05T20:56:22.839Z,3.50
2023-04-05T20:58:28.085Z,3.50
2023-04-05T21:00:33.209Z,4.07
2023-04-05T21:02:38.523Z,3.80
2023-04-05T21:04:43.814Z,3.95
2023-04-05T21:06:51.640Z,3.97
2023-04-05T21:08:56.721Z,3.63
2023-04-05T21:11:02.398Z,3.80
2023-04-05T21:13:07.710Z,4.28
2023-04-05T21:15:13.376Z,3.80
2023-04-05T21:17:19.022Z,3.83
2023-04-05T21:19:24.197Z,4.13
2023-04-05T21:21:29.536Z,4.05
2023-04-05T21:23:37.448Z,3.72
2023-04-05T21:25:42.693Z,4.18
2023-04-05T21:27:48.166Z,3.90
2023-04-05T21:29:53.245Z,3.90
2023-04-05T21:31:58.317Z,4.45
2023-04-05T21:34:03.620Z,4.22
2023-04-05T21:36:09.275Z,4.00
2023-04-05T21:38:15.957Z,4.00
2023-04-05T21:40:24.049Z,4.00
2023-04-05T21:44:33.990Z,4.72
2023-04-05T21:46:39.383Z,4.43
2023-04-05T21:48:44.970Z,3.80
2023-04-05T21:50:50.021Z,4.13
2023-04-05T21:52:55.494Z,4.32
2023-04-05T21:55:00.769Z,4.63
2023-04-05T21:57:08.702Z,4.20
2023-04-05T22:01:19.159Z,4.15
2023-04-05T22:03:24.816Z,4.43
2023-04-05T22:05:38.100Z,4.40
2023-04-05T22:07:44.423Z,4.30
2023-04-05T22:09:50.008Z,4.32
2023-04-05T22:11:55.706Z,4.07
2023-04-05T22:14:04.410Z,4.57
2023-04-05T22:16:10.505Z,4.80
2023-04-05T22:18:16.522Z,4.60
2023-04-05T22:20:21.750Z,5.25
2023-04-05T22:22:27.124Z,4.97
2023-04-05T22:24:32.325Z,4.55
2023-04-05T22:26:37.484Z,5.05
2023-04-05T22:28:43.612Z,4.82
2023-04-05T22:30:51.430Z,4.82
2023-04-05T22:32:57.085Z,4.72
2023-04-05T22:35:02.233Z,4.65
2023-04-05T22:37:07.299Z,5.10
2023-04-05T22:39:12.950Z,4.82
2023-04-05T22:41:18.083Z,4.88
2023-04-05T22:43:24.487Z,4.70
2023-04-05T22:45:31.145Z,4.30
2023-04-05T22:47:39.002Z,4.50
2023-04-05T22:49:44.604Z,4.88
2023-04-05T22:51:49.972Z,4.20
2023-04-05T22:53:55.760Z,4.50
2023-04-05T22:56:00.845Z,4.47
2023-04-05T22:58:05.987Z,4.70
2023-04-05T23:00:13.067Z,4.35
2023-04-05T23:02:18.434Z,4.72
2023-04-05T23:04:27.852Z,4.88
2023-04-05T23:06:33.885Z,4.72
2023-04-05T23:08:39.175Z,5.38
2023-04-05T23:10:44.269Z,4.40
2023-04-05T23:12:51.006Z,4.38
2023-04-05T23:14:58.682Z,4.85
2023-04-05T23:17:05.487Z,4.53
2023-04-05T23:19:11.188Z,4.18
2023-04-05T23:21:18.939Z,4.50
2023-04-05T23:23:24.227Z,4.82
2023-04-05T23:25:30.062Z,4.68
2023-04-05T23:27:37.340Z,4.70
2023-04-05T23:29:44.161Z,4.60
2023-04-05T23:31:50.477Z,4.90
2023-04-05T23:33:57.405Z,4.88
2023-04-05T23:36:02.702Z,4.38
2023-04-05T23:38:10.772Z,4.03
2023-04-05T23:40:17.082Z,4.60
2023-04-05T23:42:22.225Z,4.70
2023-04-05T23:44:27.809Z,4.25
2023-04-05T23:46:33.358Z,4.88
2023-04-05T23:48:38.748Z,4.50
2023-04-05T23:50:53.362Z,4.32
2023-04-05T23:53:00.354Z,5.10
2023-04-05T23:55:09.890Z,5.15
2023-04-05T23:57:15.063Z,4.68
2023-04-05T23:59:20.607Z,4.88
